Time;durP1;ratioP1;P1;durP2;ratioP2;P2;SDS_P1;SDS_P2;PMS_P1;PMS_P2;Temp;Humidity;BMP_temperature;BMP_pressure;BME280_temperature;BME280_humidity;BME280_pressure;Samples;Min_cycle;Max_cycle;Signal;HPM_P1;HPM_P2
2021/08/14 00:14:47;;;;;;;10.23;7.30;;;;;;;19.72;92.96;100645.79;714593;1200;114448;-75
2021/08/14 00:29:50;;;;;;;10.70;8.03;;;;;;;19.50;94.60;100628.94;714842;1200;114036;-75
2021/08/14 00:44:52;;;;;;;12.95;7.98;;;;;;;19.30;96.19;100610.88;714190;1200;114298;-74
2021/08/14 00:59:54;;;;;;;13.48;8.43;;;;;;;19.22;97.74;100618.97;715081;1200;114385;-74
2021/08/14 01:14:56;;;;;;;10.63;8.50;;;;;;;19.35;98.37;100595.20;714114;1200;113952;-75
2021/08/14 01:29:58;;;;;;;10.70;8.18;;;;;;;19.43;98.06;100581.78;714096;1205;114225;-76
2021/08/14 01:45:00;;;;;;;12.13;8.50;;;;;;;19.44;98.21;100558.69;713963;1177;115563;-75
2021/08/14 02:00:03;;;;;;;14.27;10.03;;;;;;;19.47;99.09;100560.15;714116;1177;114232;-75
2021/08/14 02:15:06;;;;;;;12.60;9.43;;;;;;;19.43;99.36;100562.35;714036;1205;114374;-74
2021/08/14 02:30:09;;;;;;;10.93;8.73;;;;;;;19.53;100.00;100546.08;714147;1200;115675;-76
2021/08/14 02:45:12;;;;;;;15.85;9.58;;;;;;;19.62;100.00;100539.63;715559;1174;114348;-75
2021/08/14 03:00:15;;;;;;;13.73;8.77;;;;;;;19.68;100.00;100530.09;713995;1177;114351;-73
2021/08/14 03:15:17;;;;;;;15.30;10.85;;;;;;;19.61;100.00;100538.81;713868;1200;114281;-74
2021/08/14 03:30:20;;;;;;;13.38;10.08;;;;;;;19.58;100.00;100525.88;714339;1183;114433;-74
2021/08/14 03:45:22;;;;;;;15.10;10.83;;;;;;;19.59;100.00;100532.03;714886;1177;114496;-75
2021/08/14 04:00:24;;;;;;;14.90;11.65;;;;;;;19.56;100.00;100530.57;713794;1202;115188;-75
2021/08/14 04:15:26;;;;;;;18.68;13.15;;;;;;;19.49;100.00;100544.81;713873;1202;115194;-74
2021/08/14 04:30:29;;;;;;;18.18;11.68;;;;;;;19.34;100.00;100574.92;713906;1200;115740;-74
2021/08/14 04:45:31;;;;;;;15.55;12.00;;;;;;;19.39;100.00;100577.85;713881;1201;115089;-75
2021/08/14 05:00:33;;;;;;;20.55;12.55;;;;;;;19.72;100.00;100590.72;713944;1200;115232;-75
2021/08/14 05:15:35;;;;;;;19.05;12.95;;;;;;;20.19;100.00;100590.38;714301;1201;114946;-76
2021/08/14 05:30:37;;;;;;;16.23;12.00;;;;;;;20.35;100.00;100587.46;714348;1200;115066;-76
2021/08/14 05:45:39;;;;;;;18.25;11.88;;;;;;;20.96;100.00;100596.73;714388;1203;115888;-75
2021/08/14 06:00:41;;;;;;;15.73;11.80;;;;;;;21.30;100.00;100608.41;714194;1200;115738;-73
2021/08/14 06:15:43;;;;;;;14.50;11.85;;;;;;;22.04;100.00;100590.78;714255;1200;115302;-75
2021/08/14 06:30:46;;;;;;;13.45;9.45;;;;;;;22.40;100.00;100607.48;714201;1200;114629;-76
2021/08/14 06:46:01;;;;;;;14.40;9.55;;;;;;;22.85;100.00;100614.84;714616;1199;114666;-76
2021/08/14 07:01:24;;;;;;;13.58;8.13;;;;;;;23.22;97.45;100626.70;714153;1202;114754;-76
2021/08/14 07:16:27;;;;;;;9.80;6.90;;;;;;;24.12;93.81;100641.13;714140;1189;114247;-72
2021/08/14 07:31:29;;;;;;;10.37;7.33;;;;;;;23.45;89.65;100648.66;714124;1202;114626;-72
2021/08/14 07:46:31;;;;;;;11.50;7.48;;;;;;;24.49;89.13;100651.98;714033;1178;115142;-72
2021/08/14 08:01:34;;;;;;;6.97;5.30;;;;;;;24.97;84.09;100650.58;714206;1202;114552;-72
2021/08/14 08:16:36;;;;;;;8.90;4.33;;;;;;;26.14;80.60;100650.63;714173;1176;114825;-72
2021/08/14 08:31:39;;;;;;;8.17;4.77;;;;;;;26.56;78.70;100643.31;714000;1200;114454;-78
2021/08/14 08:46:41;;;;;;;9.57;4.87;;;;;;;27.36;77.43;100640.24;714116;1200;115344;-77
2021/08/14 09:01:43;;;;;;;8.93;5.00;;;;;;;28.26;75.19;100662.16;713852;1177;114789;-77
2021/08/14 09:17:04;;;;;;;5.90;4.73;;;;;;;28.02;73.81;100661.48;713825;1200;115105;-76
2021/08/14 09:32:09;;;;;;;10.87;8.60;;;;;;;27.04;72.55;100649.55;714369;1203;114826;-75
2021/08/14 09:47:34;;;;;;;11.80;7.10;;;;;;;27.12;72.13;100650.23;714009;1202;115004;-75
2021/08/14 10:02:37;;;;;;;7.68;5.03;;;;;;;27.06;70.83;100674.34;713990;1203;114525;-74
2021/08/14 10:17:40;;;;;;;8.08;5.43;;;;;;;28.29;67.47;100666.23;714043;1200;115408;-76
2021/08/14 10:32:42;;;;;;;7.73;4.80;;;;;;;28.66;67.18;100669.28;713939;1200;114473;-75
2021/08/14 10:47:46;;;;;;;9.00;3.70;;;;;;;29.01;63.87;100656.56;714135;1202;114377;-76
2021/08/14 11:03:00;;;;;;;5.75;4.20;;;;;;;29.42;61.65;100658.97;714231;1200;114562;-79
2021/08/14 11:18:03;;;;;;;6.10;2.70;;;;;;;29.29;59.51;100652.09;716875;1200;114682;-80
2021/08/14 11:33:08;;;;;;;6.35;2.88;;;;;;;29.21;57.01;100666.81;715685;1200;115102;-82
2021/08/14 11:48:12;;;;;;;7.30;2.45;;;;;;;29.15;56.34;100660.50;716429;1203;114881;-81
2021/08/14 12:03:15;;;;;;;4.47;2.27;;;;;;;29.11;56.60;100658.57;716854;1200;114915;-72
2021/08/14 12:18:35;;;;;;;5.68;2.20;;;;;;;29.21;56.19;100634.40;716722;1182;114744;-87
2021/08/14 12:33:49;;;;;;;5.90;2.40;;;;;;;29.64;54.55;100616.55;716075;1200;114551;-78
2021/08/14 12:49:19;;;;;;;6.20;2.47;;;;;;;29.67;54.77;100616.03;714419;1200;114049;-82
2021/08/14 13:04:21;;;;;;;4.33;2.57;;;;;;;30.14;54.43;100606.45;714808;1200;114818;-78
2021/08/14 13:19:24;;;;;;;6.10;2.35;;;;;;;31.08;53.99;100580.80;715536;1180;115021;-79
2021/08/14 13:34:27;;;;;;;7.78;2.30;;;;;;;30.36;53.31;100581.20;713957;1177;114061;-78
2021/08/14 13:49:29;;;;;;;5.20;2.13;;;;;;;30.71;53.35;100571.67;714707;1177;114154;-85
2021/08/14 14:04:34;;;;;;;11.07;6.60;;;;;;;30.28;53.88;100566.27;714094;1177;113986;-83
2021/08/14 14:19:36;;;;;;;5.05;2.40;;;;;;;34.06;50.21;100556.73;713915;1200;114598;-83
2021/08/14 14:34:38;;;;;;;7.33;2.60;;;;;;;37.09;46.01;100553.20;713958;1202;114070;-83
2021/08/14 14:49:40;;;;;;;6.00;2.40;;;;;;;42.52;42.43;100535.50;714231;1177;113894;-84
2021/08/14 15:04:42;;;;;;;7.23;3.30;;;;;;;34.21;46.60;100512.22;714448;1202;114818;-85
2021/08/14 15:19:44;;;;;;;5.25;2.35;;;;;;;34.08;44.83;100497.41;715174;1201;114905;-86
2021/08/14 15:34:47;;;;;;;5.23;2.10;;;;;;;29.46;49.20;100484.51;715286;1200;114009;-87
2021/08/14 15:49:49;;;;;;;6.25;2.35;;;;;;;27.83;51.49;100496.42;715718;1177;113986;-87
2021/08/14 16:04:52;;;;;;;6.53;2.03;;;;;;;28.17;51.18;100488.34;714844;1200;114742;-82
2021/08/14 16:19:54;;;;;;;5.68;2.80;;;;;;;27.54;51.53;100481.16;714709;1200;115183;-83
2021/08/14 16:34:57;;;;;;;8.38;2.60;;;;;;;27.00;52.53;100470.74;714402;1202;114308;-84
2021/08/14 16:49:59;;;;;;;8.60;3.95;;;;;;;26.70;53.80;100469.05;714863;1202;114430;-84
2021/08/14 17:05:03;;;;;;;4.53;2.63;;;;;;;26.59;54.04;100451.05;714419;1200;114576;-82
2021/08/14 17:20:07;;;;;;;8.25;6.30;;;;;;;26.40;54.91;100436.95;715493;1199;113876;-82
2021/08/14 17:35:09;;;;;;;8.50;2.93;;;;;;;25.89;56.03;100437.44;714723;1200;114982;-82
2021/08/14 17:50:12;;;;;;;25.70;10.60;;;;;;;25.54;56.43;100423.98;714915;1202;114890;-81
2021/08/14 18:05:14;;;;;;;9.80;4.70;;;;;;;24.77;58.85;100421.95;715205;1200;114383;-82
2021/08/14 18:20:16;;;;;;;9.30;3.43;;;;;;;23.96;62.14;100433.52;715385;1200;113838;-87
2021/08/14 18:35:18;;;;;;;5.85;3.33;;;;;;;23.31;63.58;100439.16;715374;1200;114928;-90
2021/08/14 18:50:20;;;;;;;7.78;3.80;;;;;;;22.81;64.61;100432.59;716442;1202;114006;-84
2021/08/14 19:05:22;;;;;;;19.85;5.23;;;;;;;22.30;66.71;100434.16;715480;1184;113991;-84
2021/08/14 19:20:26;;;;;;;22.60;14.33;;;;;;;21.94;69.69;100435.45;715577;1200;114070;-84
2021/08/14 19:35:28;;;;;;;6.75;3.98;;;;;;;21.37;70.82;100441.16;715964;1200;114856;-83
2021/08/14 19:50:32;;;;;;;6.53;3.97;;;;;;;20.75;72.19;100419.84;715233;1177;114519;-84
2021/08/14 20:05:34;;;;;;;5.65;3.60;;;;;;;20.54;74.59;100411.94;715624;1200;115252;-83
2021/08/14 20:20:36;;;;;;;10.10;4.25;;;;;;;20.28;76.85;100414.28;714486;1200;114320;-82
2021/08/14 20:35:39;;;;;;;15.93;5.80;;;;;;;19.83;79.14;100412.94;714472;1205;114834;-83
2021/08/14 20:50:41;;;;;;;12.90;4.45;;;;;;;19.49;81.48;100415.27;715217;1202;114842;-83
2021/08/14 21:05:43;;;;;;;8.40;4.15;;;;;;;19.09;82.91;100410.38;714420;1200;114171;-80
2021/08/14 21:20:45;;;;;;;15.40;4.83;;;;;;;18.61;86.15;100412.67;714499;1200;114139;-82
2021/08/14 21:35:47;;;;;;;9.45;4.60;;;;;;;18.61;87.94;100410.83;714064;1200;115401;-81
2021/08/14 21:50:49;;;;;;;12.43;4.68;;;;;;;18.38;88.84;100392.33;714059;1203;114450;-80
2021/08/14 22:05:51;;;;;;;13.90;5.10;;;;;;;18.39;91.49;100388.67;713922;1202;114818;-82
2021/08/14 22:20:54;;;;;;;12.10;5.03;;;;;;;18.15;91.25;100376.52;714658;1177;114791;-80
2021/08/14 22:35:56;;;;;;;13.30;6.13;;;;;;;17.80;93.29;100363.73;714787;1177;114060;-81
2021/08/14 22:50:58;;;;;;;12.83;5.60;;;;;;;17.74;94.80;100350.38;714958;1203;114424;-81
2021/08/14 23:06:01;;;;;;;10.75;5.88;;;;;;;17.61;95.71;100329.77;715483;1200;114059;-83
2021/08/14 23:21:03;;;;;;;9.38;5.48;;;;;;;17.45;97.18;100320.13;714665;1202;115344;-82
2021/08/14 23:36:05;;;;;;;10.60;4.77;;;;;;;17.27;98.56;100304.53;714201;1205;114045;-81
2021/08/14 23:51:09;;;;;;;13.23;5.50;;;;;;;17.18;100.00;100303.77;714047;1203;114043;-82
